Etusivu
METAR-TAF:

METAR-TAF

Lentoasemat :

Pella Municipal Airport

Pella, Iowa, Yhdysvallat

Leveyspiiri: 41-24N, Pituuspiiri: 092-56W, korkeus merenpinnasta: 270 m

Tämänhetkinen sää

Tämä raportti tehtiin 8 minuuttia sitten, kello 12.35 UTC
tyyntä
Lämpötila -7°C
Kosteus 93%
Ilmanpaine 1028 hPa
Näkyvyys: 16.1 km
selkeää

METAR: KPEA 151235Z AUTO 00000KT 10SM CLR M07/M08 A3036 RMK AO2 T10681085

Aika: 06:43 (12:43 UTC)


TAF: puuttuu

Säähavainnot ja -ennusteet yli 4000 lentoasemalta (METAR- ja TAF-raportit).

Käytössä olevat sääasemat on merkitty karttaan keltaisilla ja punaisilla pisteillä.

Aseta hiiri pisteen päälle nähdäksesi sääaseman nimen.

Klikkaa sitten nähdäksesi säähavainnot ja -ennusteet.

Kartan vaihtaminen: klikkaa mustalla rastilla varustettuja vihreitä pisteitä, niin voit zoomata sisään; viivalla varustettua vihreää pistettä, niin voit zoomata ulos tai vihreitä nuolia, niin pääset viereisille kartoille.


METAR-TAF: